Time;durP1;ratioP1;P1;durP2;ratioP2;P2;SDS_P1;SDS_P2;PMS_P1;PMS_P2;Temp;Humidity;BMP_temperature;BMP_pressure;BME280_temperature;BME280_humidity;BME280_pressure;Samples;Min_cycle;Max_cycle;Signal;HPM_P1;HPM_P2
2020/12/30 00:00:05;;;;;;;17.02;10.30;;;6.20;91.10;;;;;;5085919;28;19966;-66
2020/12/30 00:02:32;;;;;;;16.67;12.13;;;6.10;91.10;;;;;;5086325;28;20028;-66
2020/12/30 00:04:58;;;;;;;;;;;6.00;91.30;;;;;;5086450;28;20027;-67
2020/12/30 00:07:24;;;;;;;13.60;8.70;;;6.00;91.30;;;;;;5067500;28;19915;-67
2020/12/30 00:09:50;;;;;;;;;;;6.00;91.30;;;;;;5068283;28;20032;-67
2020/12/30 00:12:17;;;;;;;15.35;9.27;;;6.00;91.30;;;;;;5085971;28;19912;-66
2020/12/30 00:14:43;;;;;;;14.45;8.93;;;6.00;91.30;;;;;;5086430;28;20480;-67
2020/12/30 00:17:09;;;;;;;16.10;10.27;;;5.90;91.40;;;;;;5085798;28;20028;-67
2020/12/30 00:19:35;;;;;;;;;;;5.90;91.40;;;;;;5086478;28;20039;-65
2020/12/30 00:22:03;;;;;;;13.95;8.43;;;5.90;91.40;;;;;;5085322;28;20330;-67
2020/12/30 00:24:29;;;;;;;15.55;9.63;;;5.90;91.60;;;;;;5085887;28;20069;-66
2020/12/30 00:26:54;;;;;;;;;;;6.00;91.60;;;;;;5086537;28;20127;-67
2020/12/30 00:29:20;;;;;;;10.25;7.10;;;6.00;91.70;;;;;;5067288;28;20350;-66
2020/12/30 00:31:45;;;;;;;;;;;6.10;91.70;;;;;;5086431;28;20031;-66
2020/12/30 00:34:11;;;;;;;12.38;7.15;;;6.00;91.70;;;;;;5085701;28;19907;-67
2020/12/30 00:36:39;;;;;;;;;;;6.10;91.80;;;;;;5085995;28;20024;-66
2020/12/30 00:39:06;;;;;;;11.35;6.80;;;6.10;91.40;;;;;;5085816;28;19943;-66
2020/12/30 00:41:32;;;;;;;18.10;6.82;;;6.20;91.60;;;;;;5085625;28;20070;-65
2020/12/30 00:43:59;;;;;;;12.15;6.25;;;6.30;91.30;;;;;;5085610;28;20039;-66
2020/12/30 00:46:24;;;;;;;13.20;6.97;;;6.20;91.30;;;;;;5089398;28;20036;-67
2020/12/30 00:48:50;;;;;;;;;;;6.10;91.20;;;;;;5089311;28;20086;-66
2020/12/30 00:51:15;;;;;;;10.63;6.63;;;6.20;91.20;;;;;;5089161;28;19915;-68
2020/12/30 00:53:42;;;;;;;15.32;7.80;;;6.10;91.40;;;;;;5089404;28;20622;-67
2020/12/30 00:56:08;;;;;;;11.02;6.25;;;6.10;91.40;;;;;;5089113;28;20039;-64
2020/12/30 00:58:38;;;;;;;10.07;6.32;;;6.20;91.40;;;;;;5089442;28;20031;-67
2020/12/30 01:01:06;;;;;;;12.57;7.53;;;6.20;91.10;;;;;;5088815;28;20024;-66
2020/12/30 01:03:33;;;;;;;17.90;7.10;;;6.10;91.30;;;;;;5071155;28;20070;-67
2020/12/30 01:06:02;;;;;;;13.63;7.78;;;6.20;91.20;;;;;;5088290;28;20111;-66
2020/12/30 01:08:28;;;;;;;11.40;7.03;;;6.10;91.40;;;;;;5088688;28;20051;-66
2020/12/30 01:10:54;;;;;;;;;;;6.00;91.50;;;;;;5089366;28;20031;-66
2020/12/30 01:13:19;;;;;;;11.55;6.18;;;6.00;91.50;;;;;;5088620;28;19915;-69
2020/12/30 01:15:45;;;;;;;;;;;6.10;91.30;;;;;;5071537;28;20035;-67
2020/12/30 01:18:11;;;;;;;10.68;6.32;;;6.00;91.40;;;;;;5089138;28;19904;-66
2020/12/30 01:20:36;;;;;;;;;;;6.10;90.90;;;;;;5087183;28;20020;-66
2020/12/30 01:23:02;;;;;;;9.75;6.20;;;6.30;90.40;;;;;;5088560;28;19912;-66
2020/12/30 01:25:28;;;;;;;14.77;6.45;;;6.30;90.30;;;;;;5088166;28;20052;-67
2020/12/30 01:27:54;;;;;;;;;;;6.20;90.50;;;;;;5089220;28;20031;-67
2020/12/30 01:30:20;;;;;;;9.75;6.07;;;6.10;90.70;;;;;;5088686;28;19907;-66
2020/12/30 01:32:45;;;;;;;;;;;6.10;90.90;;;;;;5089126;28;20069;-67
2020/12/30 01:35:12;;;;;;;10.38;6.28;;;6.20;91.00;;;;;;5087862;28;19961;-66
2020/12/30 01:37:37;;;;;;;12.93;8.25;;;6.20;90.70;;;;;;5088459;28;20040;-66
2020/12/30 01:40:03;;;;;;;;;;;6.00;91.10;;;;;;5070291;28;20028;-66
2020/12/30 01:42:48;;;;;;;9.80;5.93;;;6.10;90.90;;;;;;5070248;28;19998;-66
2020/12/30 01:45:14;;;;;;;12.15;6.60;;;6.00;91.00;;;;;;5069721;28;20116;-65
2020/12/30 01:47:43;;;;;;;10.50;7.18;;;6.00;91.10;;;;;;5087894;28;20144;-66
2020/12/30 01:50:09;;;;;;;14.65;7.60;;;6.00;91.00;;;;;;5087879;28;20403;-67
2020/12/30 01:52:35;;;;;;;;;;;6.00;91.10;;;;;;5088804;28;20016;-67
2020/12/30 01:55:01;;;;;;;14.68;7.50;;;6.00;91.10;;;;;;5087352;28;19939;-66
2020/12/30 01:57:29;;;;;;;15.27;7.43;;;6.20;90.80;;;;;;5088257;28;20024;-66
2020/12/30 01:59:54;;;;;;;10.45;6.40;;;6.30;90.50;;;;;;5087644;28;20110;-67
2020/12/30 02:02:24;;;;;;;;;;;6.30;90.40;;;;;;5088588;28;20449;-66
2020/12/30 02:04:52;;;;;;;11.15;7.07;;;6.30;90.30;;;;;;5087594;28;19961;-67
2020/12/30 02:07:18;;;;;;;16.25;6.97;;;6.20;90.60;;;;;;5070154;28;20051;-67
2020/12/30 02:09:44;;;;;;;13.82;6.90;;;6.30;90.50;;;;;;5087396;28;20051;-66
2020/12/30 02:12:12;;;;;;;11.32;6.55;;;6.30;90.50;;;;;;5087957;28;20036;-67
2020/12/30 02:14:38;;;;;;;10.73;5.55;;;6.20;90.50;;;;;;5087551;28;20096;-66
2020/12/30 02:17:03;;;;;;;;;;;6.30;89.30;;;;;;5069627;28;20567;-67
2020/12/30 02:19:29;;;;;;;10.35;5.70;;;6.40;88.80;;;;;;5068895;28;19931;-66
2020/12/30 02:21:58;;;;;;;;;;;6.40;89.10;;;;;;5088108;28;20133;-66
2020/12/30 02:24:30;;;;;;;11.45;6.18;;;6.40;89.30;;;;;;5086849;28;19923;-66
2020/12/30 02:26:57;;;;;;;12.88;6.45;;;6.40;88.70;;;;;;5069253;28;20074;-67
2020/12/30 02:29:23;;;;;;;11.88;6.40;;;6.60;88.80;;;;;;5087687;28;20032;-67
2020/12/30 02:31:49;;;;;;;;;;;6.70;88.90;;;;;;5087578;28;20024;-67
2020/12/30 02:34:15;;;;;;;9.18;5.72;;;6.70;88.90;;;;;;5087314;28;19904;-67
2020/12/30 02:36:41;;;;;;;10.27;6.18;;;6.50;89.30;;;;;;5087477;28;20032;-66
2020/12/30 02:39:06;;;;;;;;;;;6.30;90.10;;;;;;5087626;28;20411;-67
2020/12/30 02:41:32;;;;;;;14.63;6.68;;;6.30;90.20;;;;;;5068968;28;20374;-66
2020/12/30 02:44:00;;;;;;;9.65;5.88;;;6.30;90.00;;;;;;5087370;28;20772;-66
2020/12/30 02:46:26;;;;;;;9.30;5.45;;;6.30;90.30;;;;;;5086926;28;20080;-67
2020/12/30 02:48:52;;;;;;;;;;;6.20;90.40;;;;;;5087083;28;20733;-66
2020/12/30 02:51:17;;;;;;;18.65;6.72;;;6.40;90.00;;;;;;5086433;28;19908;-67
2020/12/30 02:53:43;;;;;;;11.75;5.85;;;6.30;90.10;;;;;;5068907;28;20743;-66
2020/12/30 02:56:08;;;;;;;;;;;6.30;90.20;;;;;;5087292;28;20119;-67
2020/12/30 02:58:34;;;;;;;10.98;6.22;;;6.30;90.30;;;;;;5086953;28;20575;-67
2020/12/30 03:01:00;;;;;;;;;;;6.30;90.30;;;;;;5087242;28;20028;-67
2020/12/30 03:03:26;;;;;;;11.30;5.78;;;6.40;90.10;;;;;;5086943;28;19908;-66
2020/12/30 03:05:51;;;;;;;;;;;6.40;90.10;;;;;;5086530;28;20818;-67
2020/12/30 03:08:17;;;;;;;11.23;6.47;;;6.50;90.00;;;;;;5085854;28;19911;-66
2020/12/30 03:10:42;;;;;;;;;;;6.40;90.00;;;;;;5087319;28;20035;-67
2020/12/30 03:13:08;;;;;;;15.40;6.35;;;6.30;90.10;;;;;;5086457;28;20252;-66
2020/12/30 03:15:34;;;;;;;9.95;6.05;;;6.30;90.20;;;;;;5086818;28;20032;-66
2020/12/30 03:17:59;;;;;;;;;;;6.40;90.20;;;;;;5086797;28;20111;-66
2020/12/30 03:20:25;;;;;;;10.65;5.93;;;6.40;90.20;;;;;;5086224;28;19911;-66
2020/12/30 03:22:50;;;;;;;14.38;5.30;;;6.40;90.20;;;;;;5086868;28;20518;-66
2020/12/30 03:25:17;;;;;;;;;;;6.40;90.00;;;;;;5086430;28;20059;-66
2020/12/30 03:27:43;;;;;;;14.85;6.50;;;6.40;90.10;;;;;;5086403;28;19927;-67
2020/12/30 03:30:09;;;;;;;;;;;6.30;90.30;;;;;;5086973;28;20149;-66
2020/12/30 03:32:35;;;;;;;13.40;6.25;;;6.30;90.50;;;;;;5086213;28;19908;-67
2020/12/30 03:35:00;;;;;;;;;;;6.40;90.50;;;;;;5086501;28;20051;-66
2020/12/30 03:37:26;;;;;;;16.08;7.28;;;6.40;90.60;;;;;;5086214;28;19988;-67
2020/12/30 03:39:51;;;;;;;;;;;6.40;90.20;;;;;;5086599;28;20032;-66
2020/12/30 03:42:17;;;;;;;11.98;5.82;;;6.40;90.20;;;;;;5086255;28;19908;-66
2020/12/30 03:44:42;;;;;;;;;;;6.50;90.20;;;;;;5086870;28;20027;-66
2020/12/30 03:47:08;;;;;;;14.02;6.78;;;6.50;90.30;;;;;;5086084;28;19922;-66
2020/12/30 03:49:34;;;;;;;;;;;6.40;90.70;;;;;;5086401;28;20043;-66
2020/12/30 03:52:01;;;;;;;16.58;7.50;;;6.40;90.90;;;;;;5086401;28;20554;-66
2020/12/30 03:54:31;;;;;;;15.13;8.27;;;6.40;91.00;;;;;;5068147;28;20404;-67
2020/12/30 03:56:56;;;;;;;13.77;6.75;;;6.40;91.40;;;;;;5086338;28;20062;-66
2020/12/30 03:59:22;;;;;;;;;;;6.40;91.40;;;;;;5086281;28;20068;-66
2020/12/30 04:01:48;;;;;;;11.18;5.80;;;6.50;91.10;;;;;;5068414;28;20380;-66
2020/12/30 04:04:14;;;;;;;;;;;6.50;91.10;;;;;;5086398;28;20024;-66
2020/12/30 04:06:41;;;;;;;13.05;7.20;;;6.50;91.30;;;;;;5086055;28;20358;-66
2020/12/30 04:09:07;;;;;;;12.45;5.50;;;6.40;91.60;;;;;;5086047;28;20035;-66
2020/12/30 04:11:32;;;;;;;12.90;5.55;;;6.40;91.70;;;;;;5086049;28;20407;-65
2020/12/30 04:13:58;;;;;;;;;;;6.40;91.80;;;;;;5086536;28;20498;-66
2020/12/30 04:16:24;;;;;;;15.68;5.57;;;6.40;91.80;;;;;;5085748;28;19904;-66
2020/12/30 04:18:51;;;;;;;9.45;5.20;;;6.40;92.00;;;;;;5086695;28;20028;-67
2020/12/30 04:21:20;;;;;;;16.52;6.20;;;6.30;92.20;;;;;;5090065;28;20028;-66
2020/12/30 04:23:47;;;;;;;18.63;8.18;;;6.30;92.50;;;;;;5071390;28;20089;-66
2020/12/30 04:26:13;;;;;;;12.77;5.45;;;6.20;92.60;;;;;;5089647;28;20055;-67
2020/12/30 04:28:38;;;;;;;;;;;6.20;92.90;;;;;;5090084;28;20028;-67
2020/12/30 04:31:04;;;;;;;10.82;4.95;;;6.20;93.00;;;;;;5089531;28;19908;-66
2020/12/30 04:33:29;;;;;;;;;;;6.20;93.10;;;;;;5089979;28;20055;-66
2020/12/30 04:35:55;;;;;;;11.70;6.20;;;6.30;93.00;;;;;;5089567;28;19985;-66
2020/12/30 04:38:20;;;;;;;;;;;6.30;93.00;;;;;;5089628;28;20051;-66
2020/12/30 04:40:46;;;;;;;11.88;7.35;;;6.30;92.70;;;;;;5089610;28;19941;-66
2020/12/30 04:43:13;;;;;;;;;;;6.30;92.70;;;;;;5090109;28;20112;-67
2020/12/30 04:45:40;;;;;;;17.92;9.27;;;6.40;92.20;;;;;;5088999;28;19912;-66
2020/12/30 04:48:09;;;;;;;18.90;11.77;;;6.20;92.10;;;;;;5089270;28;20024;-65
2020/12/30 04:50:34;;;;;;;14.85;10.52;;;6.10;92.30;;;;;;5088977;28;20059;-66
2020/12/30 04:53:01;;;;;;;;;;;5.90;92.70;;;;;;5089689;28;20113;-66
2020/12/30 04:55:31;;;;;;;19.80;10.98;;;5.90;93.00;;;;;;5089425;28;19904;-66
2020/12/30 04:58:05;;;;;;;20.27;11.45;;;5.90;93.10;;;;;;5089009;28;20523;-66
2020/12/30 05:00:37;;;;;;;19.48;12.48;;;5.70;93.30;;;;;;5089045;28;20029;-66
2020/12/30 05:03:10;;;;;;;21.05;11.70;;;5.70;93.70;;;;;;5088885;28;20063;-66
2020/12/30 05:05:40;;;;;;;16.98;9.60;;;5.70;93.80;;;;;;5088821;28;20063;-66
2020/12/30 05:08:08;;;;;;;13.10;9.02;;;5.80;93.80;;;;;;5089224;28;20436;-66
2020/12/30 05:10:36;;;;;;;15.35;9.68;;;6.00;93.50;;;;;;5089314;28;20016;-66
2020/12/30 05:13:02;;;;;;;14.25;9.48;;;5.90;93.50;;;;;;5088744;28;20036;-66
2020/12/30 05:15:27;;;;;;;;;;;5.90;93.60;;;;;;5089401;28;20028;-67
2020/12/30 05:17:54;;;;;;;19.02;11.75;;;5.90;93.60;;;;;;5088649;28;19972;-67
2020/12/30 05:20:23;;;;;;;14.68;9.20;;;5.90;93.70;;;;;;5088473;28;20073;-67
2020/12/30 05:22:49;;;;;;;13.63;9.10;;;5.90;93.80;;;;;;5070654;28;20423;-67
2020/12/30 05:25:14;;;;;;;;;;;5.90;93.80;;;;;;5088609;28;20056;-67
2020/12/30 05:27:40;;;;;;;15.25;9.98;;;5.90;94.20;;;;;;5070396;28;19923;-67
2020/12/30 05:30:05;;;;;;;;;;;5.80;94.10;;;;;;5070408;28;20028;-67
2020/12/30 05:32:35;;;;;;;16.45;11.95;;;5.70;94.20;;;;;;5069645;28;20379;-66
2020/12/30 05:35:01;;;;;;;17.83;13.90;;;5.80;94.50;;;;;;5070398;28;20093;-67
2020/12/30 05:37:33;;;;;;;;;;;5.70;94.70;;;;;;5088867;28;20431;-67
2020/12/30 05:40:00;;;;;;;19.73;13.77;;;5.90;94.30;;;;;;5088481;28;19915;-66
2020/12/30 05:42:25;;;;;;;18.27;13.40;;;5.80;94.30;;;;;;5088430;28;20024;-66
2020/12/30 05:44:52;;;;;;;;;;;5.90;94.50;;;;;;5088859;28;20103;-66
2020/12/30 05:47:21;;;;;;;20.50;13.23;;;5.90;94.40;;;;;;5088207;28;20028;-66
2020/12/30 05:49:49;;;;;;;18.40;12.60;;;5.80;94.60;;;;;;5088250;28;20028;-66
2020/12/30 05:52:23;;;;;;;19.25;12.77;;;5.80;94.70;;;;;;5088295;28;20131;-66
2020/12/30 05:54:51;;;;;;;17.55;12.35;;;5.80;94.80;;;;;;5088152;28;20388;-66
2020/12/30 05:57:24;;;;;;;34.35;20.65;;;6.00;94.50;;;;;;5088362;28;20024;-65
2020/12/30 05:59:55;;;;;;;30.77;15.50;;;6.00;94.40;;;;;;5087797;28;20031;-66
2020/12/30 06:02:26;;;;;;;24.58;15.00;;;5.90;94.40;;;;;;5087427;28;20028;-67
2020/12/30 06:04:53;;;;;;;26.65;17.42;;;5.90;94.50;;;;;;5093644;28;20032;-67
2020/12/30 06:07:19;;;;;;;19.52;14.85;;;5.80;94.60;;;;;;5096304;28;20447;-67
2020/12/30 06:09:54;;;;;;;;;;;5.80;94.70;;;;;;5098040;28;20051;-66
2020/12/30 06:12:26;;;;;;;22.15;11.50;;;5.80;94.90;;;;;;5097071;28;20299;-66
2020/12/30 06:14:53;;;;;;;15.10;11.82;;;5.80;95.00;;;;;;5071451;28;20165;-66
2020/12/30 06:17:27;;;;;;;28.85;19.58;;;5.80;95.10;;;;;;5087098;28;20089;-67
2020/12/30 06:19:54;;;;;;;28.30;17.13;;;5.80;95.30;;;;;;5087846;28;20377;-66
2020/12/30 06:22:23;;;;;;;19.20;12.77;;;5.80;95.40;;;;;;5087305;28;20178;-67
2020/12/30 06:24:53;;;;;;;13.23;9.40;;;5.80;95.50;;;;;;5087471;28;20058;-66
2020/12/30 06:27:21;;;;;;;11.85;8.38;;;5.80;95.60;;;;;;5087573;28;20043;-65
2020/12/30 06:29:49;;;;;;;14.82;9.60;;;5.70;95.60;;;;;;5087320;28;20099;-66
2020/12/30 06:32:28;;;;;;;21.80;14.43;;;5.80;95.70;;;;;;5087327;28;20081;-67
2020/12/30 06:34:54;;;;;;;23.95;15.60;;;5.70;95.60;;;;;;5087461;28;20031;-66
2020/12/30 06:37:30;;;;;;;;;;;5.70;95.70;;;;;;5069122;28;20029;-66
2020/12/30 06:40:17;;;;;;;24.67;15.93;;;5.70;95.80;;;;;;5087099;28;20364;-66
2020/12/30 06:42:44;;;;;;;21.40;13.98;;;5.80;95.90;;;;;;5085813;28;20086;-66
2020/12/30 06:45:15;;;;;;;19.45;13.63;;;5.70;95.90;;;;;;5085149;28;20020;-66
2020/12/30 06:48:10;;;;;;;17.27;11.98;;;5.70;95.90;;;;;;5083901;28;20036;-65
2020/12/30 06:50:36;;;;;;;26.58;17.60;;;5.80;95.90;;;;;;5055839;28;20040;-65
2020/12/30 06:53:37;;;;;;;;;;;5.70;96.00;;;;;;5086555;28;20024;-66
2020/12/30 06:56:04;;;;;;;19.77;14.05;;;5.70;96.00;;;;;;5023405;28;19915;-66
2020/12/30 06:58:49;;;;;;;23.35;14.52;;;5.70;96.10;;;;;;5072924;28;20032;-66
2020/12/30 07:01:21;;;;;;;23.00;11.40;;;5.80;96.20;;;;;;5094746;28;20034;-67
2020/12/30 07:03:49;;;;;;;19.08;12.63;;;5.80;96.20;;;;;;5097577;28;20055;-66
2020/12/30 07:06:31;;;;;;;14.52;10.50;;;5.80;96.20;;;;;;5088989;28;20062;-65
2020/12/30 07:08:59;;;;;;;12.38;8.95;;;5.80;96.20;;;;;;5086064;28;20035;-65
2020/12/30 07:11:43;;;;;;;10.43;5.72;;;5.80;96.20;;;;;;5085623;28;20089;-66
2020/12/30 07:14:11;;;;;;;7.82;4.88;;;5.80;96.20;;;;;;5086347;28;20048;-66
2020/12/30 07:16:39;;;;;;;10.27;7.68;;;5.90;96.20;;;;;;5066913;28;20434;-66
2020/12/30 07:19:15;;;;;;;19.60;13.38;;;5.90;96.20;;;;;;5085779;28;20092;-65
2020/12/30 07:21:49;;;;;;;26.73;14.90;;;5.90;96.20;;;;;;5067211;28;20503;-67
2020/12/30 07:24:23;;;;;;;11.95;7.65;;;5.90;96.20;;;;;;5085669;28;20064;-66
2020/12/30 07:26:52;;;;;;;6.65;4.63;;;5.90;96.10;;;;;;5085851;28;20157;-66
2020/12/30 07:29:17;;;;;;;11.90;6.93;;;5.90;96.10;;;;;;5085657;28;20107;-65
2020/12/30 07:31:46;;;;;;;;;;;5.90;96.10;;;;;;5085272;28;20107;-66
2020/12/30 07:34:16;;;;;;;2.05;1.05;;;6.00;96.00;;;;;;5085993;28;20382;-65
2020/12/30 07:36:44;;;;;;;3.10;0.90;;;6.10;95.70;;;;;;5085145;28;20020;-65
2020/12/30 07:39:09;;;;;;;5.15;0.63;;;6.10;95.40;;;;;;5067090;28;20089;-65
2020/12/30 07:41:36;;;;;;;;;;;6.10;95.20;;;;;;5086051;28;20405;-66
2020/12/30 07:44:04;;;;;;;2.60;0.40;;;6.10;95.10;;;;;;5066896;28;20364;-66
2020/12/30 07:46:30;;;;;;;4.38;0.50;;;6.10;94.90;;;;;;5084977;28;20051;-65
2020/12/30 07:49:12;;;;;;;;;;;6.10;94.80;;;;;;5068065;28;20019;-65
2020/12/30 07:51:49;;;;;;;3.42;0.60;;;6.10;94.90;;;;;;5085635;28;20321;-66
2020/12/30 07:54:16;;;;;;;2.35;0.70;;;6.10;95.10;;;;;;5087728;28;20031;-65
2020/12/30 07:56:42;;;;;;;5.57;2.63;;;6.10;95.20;;;;;;5089356;28;20107;-65
2020/12/30 07:59:08;;;;;;;4.47;1.60;;;6.10;95.30;;;;;;5071502;28;20150;-65
2020/12/30 08:01:34;;;;;;;;;;;6.20;95.30;;;;;;5071374;28;20103;-66
2020/12/30 08:04:09;;;;;;;12.13;4.53;;;6.20;95.30;;;;;;5071295;28;19919;-65
2020/12/30 08:06:45;;;;;;;17.00;6.40;;;6.20;95.30;;;;;;5089215;28;20063;-65
2020/12/30 08:09:12;;;;;;;;;;;6.30;95.40;;;;;;5067130;28;20031;-65
2020/12/30 08:11:46;;;;;;;9.32;4.40;;;6.40;95.00;;;;;;5070904;28;19904;-65
2020/12/30 08:14:12;;;;;;;9.57;6.45;;;6.40;94.80;;;;;;5089759;28;20039;-66
2020/12/30 08:16:38;;;;;;;;;;;6.40;94.90;;;;;;5071147;28;20032;-65
2020/12/30 08:19:03;;;;;;;8.68;4.85;;;6.40;94.90;;;;;;5089079;28;19907;-66
2020/12/30 08:21:29;;;;;;;;;;;6.40;95.00;;;;;;5089576;28;20111;-66
2020/12/30 08:24:09;;;;;;;25.60;15.35;;;6.40;95.10;;;;;;5088910;28;19912;-65
2020/12/30 08:26:36;;;;;;;37.55;21.33;;;6.50;95.10;;;;;;5088761;28;20820;-66
2020/12/30 08:29:03;;;;;;;36.53;20.60;;;6.60;94.90;;;;;;5088830;28;20111;-66
2020/12/30 08:31:43;;;;;;;30.05;18.60;;;6.70;94.60;;;;;;5070573;28;20480;-65
2020/12/30 08:34:10;;;;;;;21.88;12.23;;;6.70;94.20;;;;;;5070595;28;20020;-65
2020/12/30 08:36:40;;;;;;;13.27;6.88;;;6.70;93.90;;;;;;5088709;28;20032;-66
2020/12/30 08:39:08;;;;;;;13.35;8.52;;;6.80;93.90;;;;;;5070070;28;20020;-67
2020/12/30 08:41:47;;;;;;;4.20;1.95;;;6.80;93.90;;;;;;5089016;28;20636;-65
2020/12/30 08:44:16;;;;;;;5.60;0.90;;;6.90;94.00;;;;;;5070749;28;20392;-66
2020/12/30 08:46:49;;;;;;;2.92;0.73;;;6.90;93.70;;;;;;5087820;28;20064;-66
2020/12/30 08:49:18;;;;;;;2.08;0.85;;;6.90;93.60;;;;;;5088309;28;20016;-66
2020/12/30 08:51:44;;;;;;;3.35;0.90;;;6.90;93.80;;;;;;5088575;28;20031;-67
2020/12/30 08:54:13;;;;;;;;;;;6.90;94.00;;;;;;5070770;28;20028;-66
2020/12/30 08:56:44;;;;;;;6.78;1.50;;;6.90;94.10;;;;;;5088574;28;20634;-65
2020/12/30 08:59:19;;;;;;;3.25;1.27;;;7.00;94.20;;;;;;5088204;28;20028;-66
2020/12/30 09:01:45;;;;;;;3.85;1.17;;;7.10;94.00;;;;;;5088138;28;20117;-66
2020/12/30 09:04:11;;;;;;;;;;;7.20;93.80;;;;;;5088315;28;20829;-65
2020/12/30 09:06:37;;;;;;;6.05;2.20;;;7.30;93.80;;;;;;5068927;28;19916;-66
2020/12/30 09:09:13;;;;;;;;;;;7.30;93.70;;;;;;5088513;28;20024;-65
2020/12/30 09:11:45;;;;;;;4.22;2.53;;;7.30;93.80;;;;;;5070069;28;20376;-66
2020/12/30 09:14:22;;;;;;;4.35;2.22;;;7.30;94.00;;;;;;5087892;28;20027;-65
2020/12/30 09:16:55;;;;;;;5.30;2.42;;;7.40;93.80;;;;;;5087708;28;20032;-65
2020/12/30 09:19:20;;;;;;;3.85;1.55;;;7.40;93.90;;;;;;5088169;28;20036;-65
2020/12/30 09:21:46;;;;;;;;;;;7.40;93.90;;;;;;5088055;28;20035;-66
2020/12/30 09:24:16;;;;;;;3.80;1.83;;;7.40;92.90;;;;;;5069769;28;19962;-65
2020/12/30 09:26:42;;;;;;;3.47;1.60;;;7.30;93.10;;;;;;5087294;28;20026;-66
2020/12/30 09:29:17;;;;;;;;;;;7.40;93.40;;;;;;5088436;28;20032;-65
2020/12/30 09:31:56;;;;;;;3.47;1.30;;;7.50;93.80;;;;;;5087618;28;20241;-66
2020/12/30 09:34:25;;;;;;;9.25;3.83;;;7.50;93.80;;;;;;5069327;28;20134;-64
2020/12/30 09:36:56;;;;;;;30.08;12.32;;;7.50;93.80;;;;;;5087646;28;20480;-66
2020/12/30 09:39:22;;;;;;;22.85;8.45;;;7.50;93.70;;;;;;5087450;28;20028;-65
2020/12/30 09:41:47;;;;;;;;;;;7.50;93.60;;;;;;5087750;28;20645;-65
2020/12/30 09:44:13;;;;;;;4.22;2.78;;;7.60;93.40;;;;;;5087684;28;19944;-65
2020/12/30 09:46:48;;;;;;;;;;;7.60;92.90;;;;;;5086946;28;20454;-65
2020/12/30 09:49:14;;;;;;;4.43;1.25;;;7.70;92.30;;;;;;5087430;28;19908;-66
2020/12/30 09:51:40;;;;;;;;;;;7.60;92.10;;;;;;5069498;28;20031;-65
2020/12/30 09:54:05;;;;;;;4.03;1.70;;;7.60;92.00;;;;;;5087642;28;19908;-65
2020/12/30 09:56:31;;;;;;;;;;;7.50;92.40;;;;;;5087821;28;20488;-66
2020/12/30 09:58:56;;;;;;;5.63;3.80;;;7.50;92.50;;;;;;5068827;28;20002;-66
2020/12/30 10:01:22;;;;;;;;;;;7.50;92.50;;;;;;5069258;28;20024;-65
2020/12/30 10:03:47;;;;;;;5.88;2.20;;;7.50;92.30;;;;;;5087438;28;19908;-67
2020/12/30 10:06:13;;;;;;;;;;;7.50;92.30;;;;;;5087522;28;20579;-65
2020/12/30 10:08:40;;;;;;;2.30;1.60;;;7.50;92.30;;;;;;5087040;28;19908;-65
2020/12/30 10:11:05;;;;;;;6.78;3.60;;;7.50;92.40;;;;;;5068824;28;20081;-66
2020/12/30 10:13:31;;;;;;;;;;;7.40;92.00;;;;;;5087375;28;20023;-66
2020/12/30 10:15:56;;;;;;;4.00;2.38;;;7.30;92.20;;;;;;5068054;28;19908;-65
2020/12/30 10:18:22;;;;;;;;;;;7.30;92.50;;;;;;5087028;28;20036;-66
2020/12/30 10:20:50;;;;;;;59.63;24.80;;;7.30;92.70;;;;;;5069009;28;20333;-66
2020/12/30 10:23:16;;;;;;;51.00;18.45;;;7.30;92.70;;;;;;5087171;28;20024;-66
2020/12/30 10:25:42;;;;;;;;;;;7.30;92.50;;;;;;5087926;28;20052;-66
2020/12/30 10:28:08;;;;;;;14.40;5.82;;;7.40;92.50;;;;;;5069451;28;19915;-67
2020/12/30 10:30:33;;;;;;;;;;;7.40;92.60;;;;;;5087492;28;20039;-66
2020/12/30 10:32:59;;;;;;;3.47;2.47;;;7.50;92.60;;;;;;5087238;28;19908;-66
2020/12/30 10:35:24;;;;;;;;;;;7.50;92.70;;;;;;5088150;28;20111;-67
2020/12/30 10:37:51;;;;;;;5.85;3.85;;;7.60;92.50;;;;;;5087150;28;19950;-65
2020/12/30 10:40:17;;;;;;;9.70;2.78;;;7.60;92.40;;;;;;5087344;28;20035;-66
2020/12/30 10:42:42;;;;;;;;;;;7.60;92.40;;;;;;5087301;28;20035;-67
2020/12/30 10:45:08;;;;;;;6.57;4.43;;;7.60;92.10;;;;;;5086758;28;19904;-67
2020/12/30 10:47:34;;;;;;;5.10;2.97;;;7.60;92.20;;;;;;5068612;28;20412;-67
2020/12/30 10:49:59;;;;;;;;;;;7.60;92.30;;;;;;5087466;28;20483;-68
2020/12/30 10:52:25;;;;;;;3.95;2.22;;;7.60;92.10;;;;;;5087124;28;19996;-67
2020/12/30 10:54:51;;;;;;;;;;;7.70;91.80;;;;;;5087438;28;20028;-66
2020/12/30 10:57:17;;;;;;;16.83;12.02;;;7.70;91.80;;;;;;5086637;28;19912;-67
2020/12/30 10:59:43;;;;;;;13.75;7.75;;;7.70;92.10;;;;;;5086687;28;20035;-67
2020/12/30 11:02:08;;;;;;;;;;;7.80;92.10;;;;;;5087172;28;20399;-67
2020/12/30 11:04:34;;;;;;;18.38;11.95;;;7.80;91.60;;;;;;5086995;28;20045;-67
2020/12/30 11:07:01;;;;;;;;;;;7.80;91.80;;;;;;5086775;28;20036;-67
2020/12/30 11:09:27;;;;;;;14.43;8.38;;;7.80;91.80;;;;;;5086894;28;19908;-67
2020/12/30 11:11:53;;;;;;;;;;;7.70;92.00;;;;;;5069071;28;20097;-68
2020/12/30 11:14:18;;;;;;;8.98;6.55;;;7.60;92.30;;;;;;5086101;28;19907;-67
2020/12/30 11:16:47;;;;;;;;;;;7.60;92.40;;;;;;5087136;28;20028;-66
2020/12/30 11:19:13;;;;;;;10.70;7.07;;;7.70;92.60;;;;;;5086408;28;19912;-67
2020/12/30 11:21:38;;;;;;;;;;;7.70;92.70;;;;;;5087211;28;20024;-67
2020/12/30 11:24:04;;;;;;;25.35;18.73;;;7.70;92.80;;;;;;5080524;28;19923;-67
2020/12/30 11:26:29;;;;;;;;;;;7.70;92.90;;;;;;5090544;28;20120;-67
2020/12/30 11:28:55;;;;;;;18.25;13.25;;;7.70;93.10;;;;;;5085590;28;19908;-67
2020/12/30 11:31:20;;;;;;;;;;;7.70;93.10;;;;;;5088265;28;20093;-67
2020/12/30 11:33:46;;;;;;;20.27;14.13;;;7.70;93.10;;;;;;5102073;28;20268;-66
2020/12/30 11:36:11;;;;;;;;;;;7.70;93.10;;;;;;5097179;28;20032;-67
2020/12/30 11:38:37;;;;;;;11.32;7.00;;;7.70;93.20;;;;;;5085785;28;19915;-67
2020/12/30 11:41:03;;;;;;;;;;;7.60;93.20;;;;;;5086833;28;20484;-67
2020/12/30 11:43:28;;;;;;;13.38;7.70;;;7.50;93.50;;;;;;5086489;28;19908;-67
2020/12/30 11:45:54;;;;;;;;;;;7.40;93.60;;;;;;5086038;28;20040;-67
2020/12/30 11:48:21;;;;;;;14.30;10.15;;;7.40;93.80;;;;;;5086335;28;19977;-66
2020/12/30 11:50:46;;;;;;;13.05;9.65;;;7.40;93.80;;;;;;5085962;28;20043;-67
2020/12/30 11:53:12;;;;;;;;;;;7.40;94.00;;;;;;5086415;28;20085;-67
2020/12/30 11:55:37;;;;;;;20.38;10.95;;;7.40;94.10;;;;;;5086357;28;19973;-67
2020/12/30 11:58:03;;;;;;;;;;;7.50;94.10;;;;;;5086646;28;20066;-67
2020/12/30 12:00:28;;;;;;;14.30;9.85;;;7.50;94.10;;;;;;5085732;28;19914;-67
2020/12/30 12:02:54;;;;;;;;;;;7.50;94.20;;;;;;5086629;28;20078;-67
2020/12/30 12:05:19;;;;;;;16.10;11.80;;;7.50;94.20;;;;;;5085848;28;19962;-67
2020/12/30 12:07:45;;;;;;;;;;;7.60;94.40;;;;;;5068613;28;20492;-67
2020/12/30 12:10:11;;;;;;;16.60;12.00;;;7.60;94.40;;;;;;5086212;28;19908;-67
2020/12/30 12:12:37;;;;;;;;;;;7.70;94.40;;;;;;5086243;28;20069;-67
2020/12/30 12:15:07;;;;;;;14.45;9.70;;;7.70;94.30;;;;;;5085848;28;19912;-66
2020/12/30 12:17:33;;;;;;;13.13;9.32;;;7.70;94.20;;;;;;5086079;28;20393;-66
2020/12/30 12:19:59;;;;;;;15.38;9.07;;;7.70;94.10;;;;;;5085915;28;20881;-66
2020/12/30 12:22:25;;;;;;;23.45;15.45;;;7.80;94.10;;;;;;5086040;28;20032;-66
2020/12/30 12:24:51;;;;;;;;;;;7.70;94.00;;;;;;5067766;28;20401;-66
2020/12/30 12:27:17;;;;;;;25.75;17.98;;;7.70;94.00;;;;;;5085913;28;19920;-67
2020/12/30 12:29:47;;;;;;;;;;;7.70;93.90;;;;;;5085806;28;20034;-67
2020/12/30 12:32:21;;;;;;;19.02;13.57;;;7.70;94.00;;;;;;5086090;28;19912;-66
2020/12/30 12:34:49;;;;;;;25.83;19.20;;;7.60;94.00;;;;;;5067632;28;20315;-67
2020/12/30 12:37:17;;;;;;;30.23;21.83;;;7.70;94.00;;;;;;5085504;28;20024;-67
2020/12/30 12:39:45;;;;;;;31.02;27.27;;;7.70;94.00;;;;;;5087152;28;20054;-68
2020/12/30 12:42:10;;;;;;;25.67;19.80;;;7.70;93.90;;;;;;5089680;28;20032;-66
2020/12/30 12:44:36;;;;;;;;;;;7.70;94.00;;;;;;5072037;28;20040;-67
2020/12/30 12:47:02;;;;;;;27.77;20.17;;;7.70;94.00;;;;;;5089086;28;19916;-67
2020/12/30 12:49:27;;;;;;;;;;;7.70;93.90;;;;;;5090194;28;20028;-67
2020/12/30 12:51:55;;;;;;;62.20;43.90;;;7.80;93.80;;;;;;5089270;28;19912;-67
2020/12/30 12:54:21;;;;;;;48.95;36.80;;;7.70;93.70;;;;;;5071484;28;20032;-67
2020/12/30 12:56:46;;;;;;;36.65;27.80;;;7.70;93.60;;;;;;5089203;28;20031;-67
2020/12/30 12:59:12;;;;;;;;;;;7.70;93.60;;;;;;5089148;28;20115;-66
2020/12/30 13:01:45;;;;;;;25.13;19.38;;;7.70;93.60;;;;;;5089363;28;19910;-67
2020/12/30 13:04:11;;;;;;;30.77;25.23;;;7.70;93.70;;;;;;5089202;28;20024;-67
2020/12/30 13:06:36;;;;;;;;;;;7.70;93.70;;;;;;5089600;28;20063;-67
2020/12/30 13:09:03;;;;;;;15.88;11.88;;;7.80;93.80;;;;;;5088689;28;19911;-67
2020/12/30 13:11:28;;;;;;;13.60;11.15;;;7.80;93.80;;;;;;5089101;28;20088;-67
2020/12/30 13:13:54;;;;;;;;;;;7.90;93.70;;;;;;5089295;28;20499;-66
2020/12/30 13:16:21;;;;;;;15.15;12.90;;;8.00;93.50;;;;;;5089074;28;19908;-67